Time;durP1;ratioP1;P1;durP2;ratioP2;P2;SDS_P1;SDS_P2;PMS_P1;PMS_P2;Temp;Humidity;BMP_temperature;BMP_pressure;BME280_temperature;BME280_humidity;BME280_pressure;Samples;Min_cycle;Max_cycle;Signal;HPM_P1;HPM_P2
2023/08/22 00:02:11;;;;;;;8.63;7.73;;;;;;;;;;5083141;28;20503;-67
2023/08/22 00:04:39;;;;;;;7.73;7.07;;;;;;;;;;5082845;28;20802;-67
2023/08/22 00:07:06;;;;;;;9.02;8.00;;;;;;;;;;5072198;28;20443;-67
2023/08/22 00:09:34;;;;;;;8.40;7.47;;;;;;;;;;5084170;28;21845;-67
2023/08/22 00:12:05;;;;;;;9.02;7.57;;;;;;;;;;5084754;28;20436;-68
2023/08/22 00:14:32;;;;;;;8.70;7.70;;;;;;;;;;5074212;28;20462;-68
2023/08/22 00:17:00;;;;;;;8.93;7.60;;;;;;;;;;5079963;28;20421;-67
2023/08/22 00:19:27;;;;;;;9.77;7.53;;;;;;;;;;5082771;28;20434;-67
2023/08/22 00:21:56;;;;;;;8.17;7.47;;;;;;;;;;5084605;27;20425;-67
2023/08/22 00:24:24;;;;;;;8.88;7.95;;;;;;;;;;5081320;27;20428;-67
2023/08/22 00:26:51;;;;;;;8.35;7.55;;;;;;;;;;5081630;28;20428;-67
2023/08/22 00:29:18;;;;;;;11.47;7.83;;;;;;;;;;5063635;28;20436;-67
2023/08/22 00:31:45;;;;;;;8.98;7.93;;;;;;;;;;5078130;28;20446;-68
2023/08/22 00:34:13;;;;;;;12.25;8.40;;;;;;;;;;5080599;28;20437;-68
2023/08/22 00:36:40;;;;;;;10.95;9.10;;;;;;;;;;5080757;28;20430;-68
2023/08/22 00:39:07;;;;;;;9.05;8.18;;;;;;;;;;5083035;28;20431;-67
2023/08/22 00:41:34;;;;;;;9.57;8.55;;;;;;;;;;5080863;28;20461;-67
2023/08/22 00:44:01;;;;;;;9.17;8.27;;;;;;;;;;5084799;28;20426;-67
2023/08/22 00:46:29;;;;;;;11.32;9.30;;;;;;;;;;5082314;28;20527;-68
2023/08/22 00:48:56;;;;;;;9.43;8.30;;;;;;;;;;5082979;28;20990;-68
2023/08/22 00:51:23;;;;;;;13.10;8.75;;;;;;;;;;5081691;28;20438;-67
2023/08/22 00:53:53;;;;;;;10.32;8.88;;;;;;;;;;5082696;28;21455;-68
2023/08/22 00:56:20;;;;;;;9.20;8.30;;;;;;;;;;5079546;27;20436;-68
2023/08/22 00:58:48;;;;;;;10.13;9.13;;;;;;;;;;5081259;28;21096;-68
2023/08/22 01:01:15;;;;;;;11.80;8.73;;;;;;;;;;5079614;28;20434;-68
2023/08/22 01:03:43;;;;;;;10.88;8.65;;;;;;;;;;5083459;28;20428;-67
2023/08/22 01:06:16;;;;;;;10.60;9.02;;;;;;;;;;5079952;28;20434;-68
2023/08/22 01:08:46;;;;;;;9.83;8.83;;;;;;;;;;5082746;28;20512;-68
2023/08/22 01:11:19;;;;;;;10.80;9.07;;;;;;;;;;5081486;28;20515;-67
2023/08/22 01:13:48;;;;;;;10.48;8.57;;;;;;;;;;5083494;28;21260;-67
2023/08/22 01:16:19;;;;;;;10.27;9.00;;;;;;;;;;5082580;28;20422;-67
2023/08/22 01:18:46;;;;;;;12.25;9.10;;;;;;;;;;5082248;28;20835;-67
2023/08/22 01:21:21;;;;;;;11.15;9.23;;;;;;;;;;5081128;28;20430;-67
2023/08/22 01:23:48;;;;;;;13.50;9.82;;;;;;;;;;5079725;28;20430;-67
2023/08/22 01:26:16;;;;;;;13.13;9.90;;;;;;;;;;5080783;28;21639;-68
2023/08/22 01:28:47;;;;;;;10.98;9.77;;;;;;;;;;5082244;28;20586;-67
2023/08/22 01:31:25;;;;;;;11.43;10.10;;;;;;;;;;5082168;28;20433;-67
2023/08/22 01:34:06;;;;;;;14.05;10.38;;;;;;;;;;5085878;28;20427;-68
2023/08/22 01:36:33;;;;;;;17.13;10.35;;;;;;;;;;5081099;28;20569;-68
2023/08/22 01:39:06;;;;;;;14.85;11.43;;;;;;;;;;5079944;28;20434;-68
2023/08/22 01:41:33;;;;;;;16.38;11.95;;;;;;;;;;5077555;28;20942;-68
2023/08/22 01:44:03;;;;;;;14.73;12.60;;;;;;;;;;5066179;28;20426;-68
2023/08/22 01:46:30;;;;;;;14.57;12.03;;;;;;;;;;5079051;28;20464;-68
2023/08/22 01:48:57;;;;;;;12.90;11.60;;;;;;;;;;5079898;28;20429;-68
2023/08/22 01:51:28;;;;;;;14.67;11.33;;;;;;;;;;5081465;28;20909;-68
2023/08/22 01:53:55;;;;;;;21.53;14.27;;;;;;;;;;5079387;28;20509;-67
2023/08/22 01:56:22;;;;;;;12.75;11.13;;;;;;;;;;5066365;28;20426;-67
2023/08/22 01:58:49;;;;;;;16.05;12.73;;;;;;;;;;5081173;28;20430;-68
2023/08/22 02:01:16;;;;;;;15.13;12.13;;;;;;;;;;5075277;28;20429;-67
2023/08/22 02:03:45;;;;;;;13.55;12.15;;;;;;;;;;5082554;28;20778;-68
2023/08/22 02:06:13;;;;;;;13.75;12.30;;;;;;;;;;5083000;28;20437;-67
2023/08/22 02:08:40;;;;;;;14.80;12.18;;;;;;;;;;5072602;27;20541;-68
2023/08/22 02:11:07;;;;;;;13.10;11.88;;;;;;;;;;5080927;28;20538;-67
2023/08/22 02:13:38;;;;;;;15.57;12.55;;;;;;;;;;5085007;27;20462;-67
2023/08/22 02:16:05;;;;;;;15.50;12.73;;;;;;;;;;5082105;28;20504;-67
2023/08/22 02:18:32;;;;;;;19.90;14.25;;;;;;;;;;5081635;28;20429;-68
2023/08/22 02:21:02;;;;;;;21.00;15.15;;;;;;;;;;5082163;28;21109;-68
2023/08/22 02:23:31;;;;;;;16.17;14.45;;;;;;;;;;5084368;28;21294;-67
2023/08/22 02:25:59;;;;;;;17.80;14.82;;;;;;;;;;5082957;28;20452;-68
2023/08/22 02:28:26;;;;;;;17.75;15.45;;;;;;;;;;5084078;28;20887;-67
2023/08/22 02:30:56;;;;;;;16.20;14.30;;;;;;;;;;5082826;28;20428;-68
2023/08/22 02:33:23;;;;;;;15.48;13.52;;;;;;;;;;5080317;28;20441;-68
2023/08/22 02:35:51;;;;;;;15.57;13.77;;;;;;;;;;5085887;28;20428;-67
2023/08/22 02:38:19;;;;;;;15.38;13.32;;;;;;;;;;5080711;28;20430;-65
2023/08/22 02:40:46;;;;;;;14.63;13.20;;;;;;;;;;5080742;28;20429;-66
2023/08/22 02:43:13;;;;;;;14.63;13.20;;;;;;;;;;5080146;28;20435;-66
2023/08/22 02:45:40;;;;;;;11.93;10.70;;;;;;;;;;5080862;28;20469;-66
2023/08/22 02:48:08;;;;;;;12.47;11.10;;;;;;;;;;5084833;28;20424;-65
2023/08/22 02:50:37;;;;;;;12.45;11.15;;;;;;;;;;5082340;28;20441;-65
2023/08/22 02:53:04;;;;;;;11.68;10.57;;;;;;;;;;5081906;28;20523;-65
2023/08/22 02:55:32;;;;;;;14.10;10.10;;;;;;;;;;5080199;28;20560;-65
2023/08/22 02:57:59;;;;;;;12.93;11.27;;;;;;;;;;5083373;28;20498;-66
2023/08/22 03:00:26;;;;;;;13.20;11.80;;;;;;;;;;5084483;28;20420;-66
2023/08/22 03:02:53;;;;;;;13.00;11.68;;;;;;;;;;5080862;28;20426;-65
2023/08/22 03:05:20;;;;;;;13.60;11.05;;;;;;;;;;5083195;27;21219;-66
2023/08/22 03:07:50;;;;;;;13.50;11.30;;;;;;;;;;5068431;28;20455;-65
2023/08/22 03:10:20;;;;;;;13.95;11.57;;;;;;;;;;5083316;28;20424;-67
2023/08/22 03:12:50;;;;;;;15.45;11.05;;;;;;;;;;5083857;28;20466;-66
2023/08/22 03:15:17;;;;;;;12.25;10.68;;;;;;;;;;5081031;28;20426;-66
2023/08/22 03:17:44;;;;;;;13.23;11.02;;;;;;;;;;5080324;28;20934;-67
2023/08/22 03:20:15;;;;;;;14.73;11.52;;;;;;;;;;5079577;28;22173;-67
2023/08/22 03:22:42;;;;;;;14.33;11.57;;;;;;;;;;5080118;28;20420;-66
2023/08/22 03:25:09;;;;;;;14.48;11.90;;;;;;;;;;5081771;28;20563;-66
2023/08/22 03:27:37;;;;;;;18.35;11.10;;;;;;;;;;5076602;28;20596;-67
2023/08/22 03:30:05;;;;;;;12.90;10.93;;;;;;;;;;5081724;28;20452;-67
2023/08/22 03:32:32;;;;;;;12.60;11.30;;;;;;;;;;5078215;28;20449;-68
2023/08/22 03:34:59;;;;;;;11.15;9.95;;;;;;;;;;5079363;28;20433;-66
2023/08/22 03:37:26;;;;;;;14.53;11.27;;;;;;;;;;5081528;28;20430;-66
2023/08/22 03:39:53;;;;;;;16.52;12.05;;;;;;;;;;5084110;28;20461;-67
2023/08/22 03:42:21;;;;;;;14.30;12.38;;;;;;;;;;5079434;28;20437;-67
2023/08/22 03:44:48;;;;;;;17.27;12.80;;;;;;;;;;5082503;28;20434;-67
2023/08/22 03:47:15;;;;;;;16.13;12.40;;;;;;;;;;5082717;28;20491;-66
2023/08/22 03:49:42;;;;;;;14.98;12.77;;;;;;;;;;5080162;28;20863;-67
2023/08/22 03:52:09;;;;;;;14.80;12.30;;;;;;;;;;5064780;28;20459;-67
2023/08/22 03:54:37;;;;;;;15.02;11.90;;;;;;;;;;5080221;28;20428;-67
2023/08/22 03:57:04;;;;;;;13.38;12.00;;;;;;;;;;5082153;28;20421;-66
2023/08/22 03:59:34;;;;;;;16.80;12.75;;;;;;;;;;5079577;28;20549;-66
2023/08/22 04:02:01;;;;;;;14.88;12.52;;;;;;;;;;5078045;28;20570;-66
2023/08/22 04:04:29;;;;;;;16.20;12.13;;;;;;;;;;5080794;28;20435;-66
2023/08/22 04:06:57;;;;;;;15.83;13.07;;;;;;;;;;5082883;28;20881;-66
2023/08/22 04:09:24;;;;;;;14.80;13.30;;;;;;;;;;5081875;28;20433;-66
2023/08/22 04:11:53;;;;;;;18.55;13.30;;;;;;;;;;5080473;28;20440;-67
2023/08/22 04:14:20;;;;;;;16.13;13.55;;;;;;;;;;5081477;28;21476;-66
2023/08/22 04:16:47;;;;;;;16.38;13.68;;;;;;;;;;5082492;28;20950;-67
2023/08/22 04:19:15;;;;;;;20.60;14.68;;;;;;;;;;5082585;27;20909;-67
2023/08/22 04:21:42;;;;;;;16.07;14.20;;;;;;;;;;5080465;27;20467;-67
2023/08/22 04:24:11;;;;;;;16.30;14.52;;;;;;;;;;5081199;27;20517;-66
2023/08/22 04:26:39;;;;;;;17.92;15.43;;;;;;;;;;5082923;28;20428;-66
2023/08/22 04:29:07;;;;;;;18.77;15.30;;;;;;;;;;5081140;28;20441;-66
2023/08/22 04:31:34;;;;;;;18.52;14.55;;;;;;;;;;5080760;28;20503;-66
2023/08/22 04:34:01;;;;;;;20.88;15.85;;;;;;;;;;5080941;27;20433;-67
2023/08/22 04:36:29;;;;;;;19.95;15.95;;;;;;;;;;5079383;28;20525;-66
2023/08/22 04:38:56;;;;;;;18.20;15.40;;;;;;;;;;5074899;28;20433;-67
2023/08/22 04:41:23;;;;;;;21.85;18.02;;;;;;;;;;5078768;28;20432;-66
2023/08/22 04:43:50;;;;;;;19.75;15.40;;;;;;;;;;5081104;28;20429;-66
2023/08/22 04:46:17;;;;;;;19.35;16.20;;;;;;;;;;5089682;28;20422;-66
2023/08/22 04:48:47;;;;;;;17.05;15.05;;;;;;;;;;5082472;28;20432;-66
2023/08/22 04:51:15;;;;;;;17.13;15.32;;;;;;;;;;5080124;28;20437;-66
2023/08/22 04:53:46;;;;;;;22.30;16.83;;;;;;;;;;5085221;28;20435;-66
2023/08/22 04:56:21;;;;;;;18.08;16.17;;;;;;;;;;5081986;28;20435;-66
2023/08/22 04:58:48;;;;;;;18.20;16.20;;;;;;;;;;5078091;28;20508;-67
2023/08/22 05:01:15;;;;;;;18.10;15.45;;;;;;;;;;5082176;28;20456;-67
2023/08/22 05:03:43;;;;;;;19.03;15.57;;;;;;;;;;5080693;28;20963;-66
2023/08/22 05:06:10;;;;;;;19.93;15.73;;;;;;;;;;5077858;28;20428;-67
2023/08/22 05:08:37;;;;;;;19.92;15.63;;;;;;;;;;5064323;28;20442;-66
2023/08/22 05:11:04;;;;;;;16.80;13.60;;;;;;;;;;5089234;28;20955;-65
2023/08/22 05:13:31;;;;;;;16.95;14.13;;;;;;;;;;5084661;28;20433;-65
2023/08/22 05:15:58;;;;;;;18.17;14.82;;;;;;;;;;5087294;28;20424;-65
2023/08/22 05:18:26;;;;;;;15.90;14.18;;;;;;;;;;5062082;27;20434;-65
2023/08/22 05:20:53;;;;;;;16.58;13.98;;;;;;;;;;5084223;28;20532;-66
2023/08/22 05:23:20;;;;;;;16.97;13.27;;;;;;;;;;5085000;28;20426;-66
2023/08/22 05:25:47;;;;;;;13.32;12.02;;;;;;;;;;5071014;28;20436;-65
2023/08/22 05:28:14;;;;;;;15.20;12.35;;;;;;;;;;5083091;28;20453;-65
2023/08/22 05:30:41;;;;;;;13.25;11.85;;;;;;;;;;5071134;28;21218;-65
2023/08/22 05:33:09;;;;;;;13.55;11.70;;;;;;;;;;5087029;28;20459;-65
2023/08/22 05:35:36;;;;;;;12.10;10.90;;;;;;;;;;5088147;28;20430;-65
2023/08/22 05:38:06;;;;;;;12.63;11.35;;;;;;;;;;5078373;28;20416;-65
2023/08/22 05:40:33;;;;;;;15.07;11.87;;;;;;;;;;5090792;28;20506;-66
2023/08/22 05:43:00;;;;;;;13.25;11.77;;;;;;;;;;5089060;28;20426;-66
2023/08/22 05:45:27;;;;;;;13.07;11.77;;;;;;;;;;5088323;28;21081;-68
2023/08/22 05:47:55;;;;;;;14.82;12.45;;;;;;;;;;5089275;27;20491;-67
2023/08/22 05:50:22;;;;;;;15.10;11.30;;;;;;;;;;5092092;28;20457;-67
2023/08/22 05:52:50;;;;;;;14.80;11.38;;;;;;;;;;5088197;28;20430;-66
2023/08/22 05:55:18;;;;;;;15.60;11.80;;;;;;;;;;5087016;28;20433;-67
2023/08/22 05:57:45;;;;;;;18.37;12.33;;;;;;;;;;5088485;28;20422;-67
2023/08/22 06:00:12;;;;;;;16.05;11.55;;;;;;;;;;5090468;27;20469;-67
2023/08/22 06:02:42;;;;;;;13.23;10.70;;;;;;;;;;5090196;28;20452;-67
2023/08/22 06:05:09;;;;;;;12.70;9.68;;;;;;;;;;5087623;28;20432;-67
2023/08/22 06:07:37;;;;;;;11.55;9.45;;;;;;;;;;5071716;27;21026;-67
2023/08/22 06:10:04;;;;;;;10.75;8.43;;;;;;;;;;5094849;28;20510;-67
2023/08/22 06:12:31;;;;;;;8.90;7.95;;;;;;;;;;5083438;27;20452;-66
2023/08/22 06:15:01;;;;;;;9.13;7.60;;;;;;;;;;5089798;28;20438;-66
2023/08/22 06:17:28;;;;;;;10.27;8.25;;;;;;;;;;5073965;28;20525;-66
2023/08/22 06:19:56;;;;;;;11.63;7.17;;;;;;;;;;5087421;28;20434;-66
2023/08/22 06:22:23;;;;;;;8.00;6.70;;;;;;;;;;5071690;28;20431;-66
2023/08/22 06:24:50;;;;;;;8.88;6.40;;;;;;;;;;5081107;28;20440;-66
2023/08/22 06:27:18;;;;;;;8.65;7.50;;;;;;;;;;5086315;28;20977;-67
2023/08/22 06:29:45;;;;;;;9.17;6.87;;;;;;;;;;5082061;28;20432;-66
2023/08/22 06:32:12;;;;;;;8.20;6.63;;;;;;;;;;5080450;28;20432;-66
2023/08/22 06:34:39;;;;;;;7.60;6.80;;;;;;;;;;5085412;28;20567;-66
2023/08/22 06:37:07;;;;;;;9.68;6.18;;;;;;;;;;5088025;28;20459;-66
2023/08/22 06:39:34;;;;;;;10.57;7.38;;;;;;;;;;5087003;28;20428;-66
2023/08/22 06:42:01;;;;;;;11.45;6.63;;;;;;;;;;5083290;27;20446;-66
2023/08/22 06:44:28;;;;;;;8.55;6.78;;;;;;;;;;5085308;27;20505;-67
2023/08/22 06:46:55;;;;;;;7.40;6.45;;;;;;;;;;5084307;28;20422;-66
2023/08/22 06:49:22;;;;;;;8.80;6.03;;;;;;;;;;5085415;28;20428;-66
2023/08/22 06:51:49;;;;;;;7.10;6.40;;;;;;;;;;5091887;27;20898;-66
2023/08/22 06:54:23;;;;;;;6.47;5.88;;;;;;;;;;5081771;28;21081;-66
2023/08/22 06:56:50;;;;;;;7.40;6.00;;;;;;;;;;5086630;27;20438;-66
2023/08/22 06:59:20;;;;;;;9.05;5.75;;;;;;;;;;5071587;28;20433;-66
2023/08/22 07:01:47;;;;;;;6.53;5.50;;;;;;;;;;5090279;27;20431;-66
2023/08/22 07:04:14;;;;;;;5.90;5.30;;;;;;;;;;5086935;27;20784;-66
2023/08/22 07:06:43;;;;;;;10.50;5.50;;;;;;;;;;5086896;27;20799;-66
2023/08/22 07:09:10;;;;;;;8.07;5.63;;;;;;;;;;5086967;28;20428;-67
2023/08/22 07:11:38;;;;;;;6.47;5.47;;;;;;;;;;5081104;27;20457;-66
2023/08/22 07:14:05;;;;;;;5.68;5.10;;;;;;;;;;5076545;27;20441;-66
2023/08/22 07:16:33;;;;;;;5.85;5.30;;;;;;;;;;5075614;28;20437;-67
2023/08/22 07:19:00;;;;;;;7.50;5.23;;;;;;;;;;5081560;28;20449;-67
2023/08/22 07:21:27;;;;;;;6.55;5.38;;;;;;;;;;5081235;27;20438;-66
2023/08/22 07:23:55;;;;;;;5.78;5.28;;;;;;;;;;5076690;27;20899;-67
2023/08/22 07:26:22;;;;;;;8.35;5.30;;;;;;;;;;5086342;28;20484;-67
2023/08/22 07:28:49;;;;;;;7.82;5.22;;;;;;;;;;5087861;27;20963;-67
2023/08/22 07:31:16;;;;;;;9.07;5.55;;;;;;;;;;5072494;28;20499;-67
2023/08/22 07:33:44;;;;;;;7.03;5.40;;;;;;;;;;5066292;28;20437;-68
2023/08/22 07:36:21;;;;;;;6.35;5.00;;;;;;;;;;5086541;28;20577;-67
2023/08/22 07:38:48;;;;;;;6.30;5.25;;;;;;;;;;5098899;27;20426;-67
2023/08/22 07:41:16;;;;;;;6.70;5.43;;;;;;;;;;5092154;28;20505;-67
2023/08/22 07:43:43;;;;;;;7.57;4.75;;;;;;;;;;5081108;28;20429;-67
2023/08/22 07:46:13;;;;;;;6.53;5.07;;;;;;;;;;5084049;27;20444;-70
2023/08/22 07:48:40;;;;;;;5.85;4.20;;;;;;;;;;5083301;27;20437;-69
2023/08/22 07:51:07;;;;;;;6.43;4.70;;;;;;;;;;5080241;27;20465;-69
2023/08/22 07:53:34;;;;;;;6.70;5.10;;;;;;;;;;5083888;28;20540;-69
2023/08/22 07:56:02;;;;;;;9.55;5.18;;;;;;;;;;5082374;28;20965;-69
2023/08/22 07:58:32;;;;;;;4.90;4.40;;;;;;;;;;5051156;28;20430;-69
2023/08/22 08:00:59;;;;;;;4.63;4.15;;;;;;;;;;5082012;27;20432;-69
2023/08/22 08:03:26;;;;;;;6.65;4.90;;;;;;;;;;5084163;27;20433;-67
2023/08/22 08:05:55;;;;;;;5.50;4.90;;;;;;;;;;5083642;27;20440;-67
2023/08/22 08:08:22;;;;;;;6.30;4.35;;;;;;;;;;5082788;28;20448;-68
2023/08/22 08:10:50;;;;;;;9.02;5.13;;;;;;;;;;5065389;28;20445;-69
2023/08/22 08:13:17;;;;;;;6.00;4.70;;;;;;;;;;5082745;27;20430;-69
2023/08/22 08:15:44;;;;;;;10.80;5.22;;;;;;;;;;5080183;27;21285;-69
2023/08/22 08:18:11;;;;;;;5.75;5.18;;;;;;;;;;5084316;27;20457;-69
2023/08/22 08:20:38;;;;;;;8.15;4.90;;;;;;;;;;5078271;27;20507;-69
2023/08/22 08:23:05;;;;;;;10.13;6.13;;;;;;;;;;5066263;27;20424;-69
2023/08/22 08:25:33;;;;;;;6.73;6.13;;;;;;;;;;5081038;28;20434;-69
2023/08/22 08:28:00;;;;;;;8.15;6.35;;;;;;;;;;5079288;27;22033;-70
2023/08/22 08:30:30;;;;;;;9.52;5.68;;;;;;;;;;5078079;28;20603;-70
2023/08/22 08:32:57;;;;;;;9.38;6.82;;;;;;;;;;5078082;27;20507;-70
2023/08/22 08:35:24;;;;;;;7.93;5.55;;;;;;;;;;5080792;27;21203;-69
2023/08/22 08:37:56;;;;;;;9.52;6.47;;;;;;;;;;5060493;27;20436;-69
2023/08/22 08:40:24;;;;;;;9.27;6.15;;;;;;;;;;5076559;27;20502;-69
2023/08/22 08:42:51;;;;;;;10.80;6.97;;;;;;;;;;5076222;28;20444;-69
2023/08/22 08:45:18;;;;;;;8.82;7.57;;;;;;;;;;5075257;27;20953;-69
2023/08/22 08:47:46;;;;;;;12.13;7.60;;;;;;;;;;5077988;28;20611;-69
2023/08/22 08:50:14;;;;;;;8.15;6.95;;;;;;;;;;5078220;28;20441;-69
2023/08/22 08:52:45;;;;;;;10.80;7.70;;;;;;;;;;5076220;28;23297;-69
2023/08/22 08:55:12;;;;;;;6.72;6.03;;;;;;;;;;5078199;28;20548;-69
2023/08/22 08:57:39;;;;;;;6.13;5.22;;;;;;;;;;5078514;28;20496;-68
2023/08/22 09:00:07;;;;;;;5.68;4.32;;;;;;;;;;5076832;27;20436;-68
2023/08/22 09:02:35;;;;;;;7.57;4.47;;;;;;;;;;5076177;28;20504;-69
2023/08/22 09:05:06;;;;;;;11.13;4.72;;;;;;;;;;5080975;28;21191;-69
2023/08/22 09:07:33;;;;;;;6.25;4.50;;;;;;;;;;5083893;27;20433;-69
2023/08/22 09:10:02;;;;;;;6.67;4.50;;;;;;;;;;5076446;27;20534;-69
2023/08/22 09:12:34;;;;;;;9.18;5.40;;;;;;;;;;5075767;27;20436;-71
2023/08/22 09:15:02;;;;;;;7.07;4.45;;;;;;;;;;5081392;28;20489;-71
2023/08/22 09:17:30;;;;;;;5.93;4.72;;;;;;;;;;5079054;28;20620;-71
2023/08/22 09:19:57;;;;;;;6.63;4.68;;;;;;;;;;5078265;28;20454;-69
2023/08/22 09:22:30;;;;;;;4.70;4.20;;;;;;;;;;5074459;28;20506;-69
2023/08/22 09:24:58;;;;;;;6.97;4.70;;;;;;;;;;5076641;28;20436;-70
2023/08/22 09:27:26;;;;;;;8.17;5.13;;;;;;;;;;5081162;28;20573;-70
2023/08/22 09:29:54;;;;;;;5.53;4.20;;;;;;;;;;5059663;28;20465;-67
2023/08/22 09:32:22;;;;;;;6.50;4.37;;;;;;;;;;5059633;28;20441;-67
2023/08/22 09:34:53;;;;;;;5.22;3.95;;;;;;;;;;5083117;28;20516;-70
2023/08/22 09:37:33;;;;;;;6.33;4.57;;;;;;;;;;5076591;28;20786;-70
2023/08/22 09:40:03;;;;;;;9.20;4.43;;;;;;;;;;5077906;28;21036;-69
2023/08/22 09:42:31;;;;;;;8.13;3.97;;;;;;;;;;5062483;28;20424;-68
2023/08/22 09:44:58;;;;;;;6.78;3.83;;;;;;;;;;5078200;28;20489;-69
2023/08/22 09:47:30;;;;;;;8.68;3.88;;;;;;;;;;5059468;28;20491;-70
2023/08/22 09:50:02;;;;;;;5.05;4.25;;;;;;;;;;5075580;28;20433;-69
2023/08/22 09:52:31;;;;;;;5.57;4.40;;;;;;;;;;5077805;28;20522;-69
2023/08/22 09:54:58;;;;;;;6.35;5.10;;;;;;;;;;5077278;28;20436;-69
2023/08/22 09:57:25;;;;;;;5.00;4.50;;;;;;;;;;5077075;28;20424;-70
2023/08/22 09:59:52;;;;;;;9.00;5.25;;;;;;;;;;5075376;28;20457;-71
2023/08/22 10:02:20;;;;;;;7.30;5.03;;;;;;;;;;5077884;28;21039;-70
2023/08/22 10:04:47;;;;;;;6.88;5.07;;;;;;;;;;5079290;28;20432;-68
2023/08/22 10:07:14;;;;;;;8.85;5.35;;;;;;;;;;5078238;28;20431;-68
2023/08/22 10:09:42;;;;;;;5.60;4.43;;;;;;;;;;5062911;28;20423;-68
2023/08/22 10:12:11;;;;;;;5.13;4.60;;;;;;;;;;5076288;28;20515;-65
2023/08/22 10:14:47;;;;;;;5.85;4.32;;;;;;;;;;5075673;28;20513;-67
2023/08/22 10:17:14;;;;;;;6.27;4.73;;;;;;;;;;5077246;28;20429;-68
2023/08/22 10:19:42;;;;;;;6.25;4.88;;;;;;;;;;5080205;28;20491;-69
2023/08/22 10:22:10;;;;;;;7.00;4.78;;;;;;;;;;5078160;28;20420;-67
2023/08/22 10:24:38;;;;;;;6.22;5.10;;;;;;;;;;5082637;28;20812;-68
2023/08/22 10:27:15;;;;;;;5.15;4.65;;;;;;;;;;5080290;28;20602;-61
2023/08/22 10:29:45;;;;;;;5.85;4.72;;;;;;;;;;5081594;28;20501;-67
2023/08/22 10:32:12;;;;;;;6.97;4.40;;;;;;;;;;5079037;27;20456;-66
2023/08/22 10:34:42;;;;;;;6.25;5.60;;;;;;;;;;5077694;28;20535;-68
2023/08/22 10:37:12;;;;;;;5.67;4.50;;;;;;;;;;5079421;28;20430;-66
2023/08/22 10:39:41;;;;;;;6.10;4.97;;;;;;;;;;5081277;27;20970;-68
2023/08/22 10:42:09;;;;;;;4.47;4.07;;;;;;;;;;5079604;27;20931;-69
2023/08/22 10:44:39;;;;;;;4.37;3.90;;;;;;;;;;5083382;27;20432;-68
2023/08/22 10:47:07;;;;;;;4.73;3.70;;;;;;;;;;5078521;28;20512;-69
2023/08/22 10:49:38;;;;;;;6.18;4.43;;;;;;;;;;5080377;27;20966;-68
2023/08/22 10:52:09;;;;;;;4.20;3.80;;;;;;;;;;5079149;27;20460;-68
2023/08/22 10:54:55;;;;;;;5.38;4.00;;;;;;;;;;5080549;28;20441;-69
2023/08/22 10:57:24;;;;;;;4.47;4.10;;;;;;;;;;5084427;27;20997;-69
2023/08/22 11:00:11;;;;;;;5.45;3.67;;;;;;;;;;5083588;28;21404;-69
2023/08/22 11:02:38;;;;;;;4.50;3.58;;;;;;;;;;5078455;28;20439;-68
2023/08/22 11:05:10;;;;;;;5.68;3.60;;;;;;;;;;5076951;27;20440;-68
2023/08/22 11:07:41;;;;;;;3.40;3.10;;;;;;;;;;5062460;28;20490;-68
2023/08/22 11:10:12;;;;;;;3.28;2.97;;;;;;;;;;5083675;27;20566;-69
2023/08/22 11:12:40;;;;;;;4.05;3.40;;;;;;;;;;5081854;27;20500;-68
2023/08/22 11:15:08;;;;;;;4.30;3.33;;;;;;;;;;5082400;27;20429;-68
2023/08/22 11:17:39;;;;;;;3.67;3.30;;;;;;;;;;5079884;27;20439;-68
2023/08/22 11:20:27;;;;;;;4.15;3.38;;;;;;;;;;5079867;27;20874;-67
2023/08/22 11:22:54;;;;;;;5.32;4.25;;;;;;;;;;5081262;28;20696;-68
2023/08/22 11:25:23;;;;;;;4.32;3.60;;;;;;;;;;5082003;27;22135;-68
2023/08/22 11:27:50;;;;;;;5.60;3.20;;;;;;;;;;5065400;28;20414;-69
2023/08/22 11:30:18;;;;;;;3.50;2.53;;;;;;;;;;5096070;28;20439;-68
2023/08/22 11:32:45;;;;;;;3.13;2.78;;;;;;;;;;5096058;28;20483;-68
2023/08/22 11:35:16;;;;;;;2.97;2.75;;;;;;;;;;5080578;28;20428;-66
2023/08/22 11:37:43;;;;;;;4.10;2.93;;;;;;;;;;5082743;27;20934;-68
2023/08/22 11:40:18;;;;;;;5.75;3.20;;;;;;;;;;5080868;27;20848;-68
2023/08/22 11:42:46;;;;;;;3.38;3.00;;;;;;;;;;5078157;28;20425;-68
2023/08/22 11:45:17;;;;;;;6.13;3.47;;;;;;;;;;5079659;28;20424;-70
2023/08/22 11:47:46;;;;;;;3.27;2.97;;;;;;;;;;5079722;27;20461;-66
2023/08/22 11:50:21;;;;;;;3.72;3.05;;;;;;;;;;5079611;27;21249;-68
2023/08/22 11:52:55;;;;;;;5.88;2.90;;;;;;;;;;5078474;28;20993;-68
2023/08/22 11:55:28;;;;;;;8.50;3.53;;;;;;;;;;5079585;27;20511;-68
2023/08/22 11:57:56;;;;;;;4.28;3.20;;;;;;;;;;5075914;27;20527;-67
2023/08/22 12:00:25;;;;;;;5.78;3.50;;;;;;;;;;5079399;27;20425;-67
2023/08/22 12:02:53;;;;;;;3.95;3.17;;;;;;;;;;5082146;27;20552;-67
2023/08/22 12:05:34;;;;;;;4.95;3.13;;;;;;;;;;5082085;27;20484;-67
2023/08/22 12:08:07;;;;;;;5.13;2.85;;;;;;;;;;5080521;28;20454;-67
2023/08/22 12:10:46;;;;;;;3.20;2.90;;;;;;;;;;5080160;27;20551;-66
2023/08/22 12:13:15;;;;;;;3.53;3.00;;;;;;;;;;5077430;27;20460;-68
2023/08/22 12:15:42;;;;;;;3.25;2.70;;;;;;;;;;5075574;27;20442;-68
2023/08/22 12:18:10;;;;;;;3.20;2.60;;;;;;;;;;5083076;28;20512;-67
2023/08/22 12:20:38;;;;;;;4.25;2.42;;;;;;;;;;5082016;28;20432;-67
2023/08/22 12:23:11;;;;;;;3.35;2.50;;;;;;;;;;5080775;28;20571;-67
2023/08/22 12:25:40;;;;;;;4.07;2.47;;;;;;;;;;5081151;28;20430;-66
2023/08/22 12:28:11;;;;;;;2.85;2.65;;;;;;;;;;5061171;28;20899;-66
2023/08/22 12:30:42;;;;;;;3.67;2.90;;;;;;;;;;5080916;28;20418;-66
2023/08/22 12:33:09;;;;;;;2.65;2.22;;;;;;;;;;5080739;28;20424;-68
2023/08/22 12:35:38;;;;;;;5.93;2.90;;;;;;;;;;5077569;27;20503;-68
2023/08/22 12:38:06;;;;;;;3.17;2.50;;;;;;;;;;5079981;28;20436;-68
2023/08/22 12:40:33;;;;;;;3.38;2.33;;;;;;;;;;5076992;28;20431;-67
2023/08/22 12:43:01;;;;;;;2.70;2.50;;;;;;;;;;5064531;28;20466;-67
2023/08/22 12:45:28;;;;;;;5.70;3.00;;;;;;;;;;5065050;27;20488;-68
2023/08/22 12:47:56;;;;;;;4.60;2.70;;;;;;;;;;5077852;28;20439;-69
2023/08/22 12:50:24;;;;;;;3.78;2.65;;;;;;;;;;5080380;27;20504;-66
2023/08/22 12:52:52;;;;;;;2.63;2.42;;;;;;;;;;5073591;27;20499;-67
2023/08/22 12:55:20;;;;;;;2.50;2.30;;;;;;;;;;5078723;28;21687;-66
2023/08/22 12:57:48;;;;;;;4.13;2.80;;;;;;;;;;5081574;27;20436;-68
2023/08/22 13:00:15;;;;;;;2.50;2.20;;;;;;;;;;5065554;27;20438;-67
2023/08/22 13:02:43;;;;;;;5.40;2.63;;;;;;;;;;5078992;28;21145;-67
2023/08/22 13:05:13;;;;;;;4.18;2.47;;;;;;;;;;5076922;28;20917;-69
2023/08/22 13:07:43;;;;;;;3.35;2.33;;;;;;;;;;5074620;28;20734;-69
2023/08/22 13:10:11;;;;;;;3.60;2.38;;;;;;;;;;5071602;28;20458;-69
2023/08/22 13:12:39;;;;;;;3.35;2.85;;;;;;;;;;5075632;28;20773;-67
2023/08/22 13:15:06;;;;;;;2.58;2.38;;;;;;;;;;5078932;27;20495;-67
2023/08/22 13:17:33;;;;;;;3.70;2.42;;;;;;;;;;5078931;28;20563;-68
2023/08/22 13:20:00;;;;;;;3.30;2.35;;;;;;;;;;5067624;28;20518;-67
2023/08/22 13:22:28;;;;;;;3.38;2.38;;;;;;;;;;5076772;28;20941;-67
2023/08/22 13:24:55;;;;;;;2.33;2.20;;;;;;;;;;5081704;28;20473;-68
2023/08/22 13:27:22;;;;;;;2.40;2.20;;;;;;;;;;5061746;28;20436;-68
2023/08/22 13:29:49;;;;;;;4.97;2.40;;;;;;;;;;5059623;28;20429;-68
2023/08/22 13:32:19;;;;;;;6.35;2.35;;;;;;;;;;5080233;28;20632;-68
2023/08/22 13:34:46;;;;;;;3.38;2.30;;;;;;;;;;5081573;28;20440;-67
2023/08/22 13:37:17;;;;;;;3.00;2.42;;;;;;;;;;5078358;28;20431;-68
2023/08/22 13:39:44;;;;;;;5.05;2.50;;;;;;;;;;5065020;28;20945;-69
2023/08/22 13:42:12;;;;;;;3.15;2.53;;;;;;;;;;5077647;28;20529;-69
2023/08/22 13:44:40;;;;;;;2.78;2.33;;;;;;;;;;5066035;28;20422;-68
2023/08/22 13:47:08;;;;;;;3.13;2.53;;;;;;;;;;5079908;28;20433;-69
2023/08/22 13:49:35;;;;;;;3.35;2.53;;;;;;;;;;5079553;28;20416;-68
2023/08/22 13:52:02;;;;;;;2.45;2.30;;;;;;;;;;5079679;28;20430;-68
2023/08/22 13:54:30;;;;;;;2.53;2.20;;;;;;;;;;5077211;28;20561;-68
2023/08/22 13:56:57;;;;;;;2.95;2.60;;;;;;;;;;5066163;28;21288;-68
2023/08/22 13:59:24;;;;;;;2.53;2.17;;;;;;;;;;5081855;28;20430;-68
2023/08/22 14:01:52;;;;;;;2.15;1.98;;;;;;;;;;5085344;28;20430;-69
2023/08/22 14:04:23;;;;;;;5.63;2.33;;;;;;;;;;5080099;28;20440;-69
2023/08/22 14:06:52;;;;;;;3.65;2.30;;;;;;;;;;5080655;28;20444;-69
2023/08/22 14:09:19;;;;;;;2.80;2.20;;;;;;;;;;5082932;28;20558;-68
2023/08/22 14:11:53;;;;;;;2.80;2.05;;;;;;;;;;5079438;28;20478;-68
2023/08/22 14:14:20;;;;;;;2.20;2.10;;;;;;;;;;5071177;28;20564;-67
2023/08/22 14:16:47;;;;;;;2.10;2.00;;;;;;;;;;5068023;28;20578;-67
2023/08/22 14:19:15;;;;;;;2.35;2.20;;;;;;;;;;5083653;28;20486;-68
2023/08/22 14:21:45;;;;;;;2.75;2.45;;;;;;;;;;5083820;28;20429;-69
2023/08/22 14:24:16;;;;;;;2.72;2.30;;;;;;;;;;5063787;28;20490;-69
2023/08/22 14:26:43;;;;;;;3.45;2.33;;;;;;;;;;5071426;28;20437;-69
2023/08/22 14:29:11;;;;;;;3.47;2.25;;;;;;;;;;5080471;28;20468;-69
2023/08/22 14:31:38;;;;;;;3.67;2.55;;;;;;;;;;5067890;27;20549;-69
2023/08/22 14:34:07;;;;;;;2.53;2.33;;;;;;;;;;5081180;28;20429;-69
2023/08/22 14:36:34;;;;;;;2.20;2.10;;;;;;;;;;5067936;28;20433;-68
2023/08/22 14:39:01;;;;;;;3.22;2.40;;;;;;;;;;5081388;28;20421;-69
2023/08/22 14:41:28;;;;;;;3.85;2.40;;;;;;;;;;5080705;28;21222;-68